West Branch, Michigan
Current Conditions -  °F | °C
As of 11:53 AM on Thursday 30 Oct 2014 (Local Time) from KHTL Reporting Station
Overcast Overcast  
Wind Chill: 38°   Ceiling: 3800
Heat Index: 42°   Visibility: 10mi
Dew Point: 37°   Wind: 6mph
Humidity: 82%   Direction: 230°SW
Pressure: 30.08"   Gusts: NA
Location:  44.28°N, 84.24°W
Report Text: KHTL 301553Z AUTO 23005KT 10SM OVC038 06/03 A3008 RMK AO2 SLP195 T00560028
Loading
Personal Weather Stations






























Interactive Weather Map
Tropical Storm Tracking
New forecast layout! Learn more

10-Day Weather Forecast

Advertisements
Track Severe Weather on mobile